METAR Data
IDs: Format: Raw Decoded Include TAF

Data at: 0241 UTC 25 Feb 2021

ESMK 250220Z AUTO 23008KT 9999 // FEW068/// OVC088/// 13/06 Q1023